sensor_id;sensor_type;location;lat;lon;timestamp;temperature;humidity
61339;DHT22;47213;52.362;4.606;2023-02-04T00:07:04;9.80;99.90
61339;DHT22;47213;52.362;4.606;2023-02-04T00:17:04;9.40;99.90
61339;DHT22;47213;52.362;4.606;2023-02-04T00:22:04;9.50;99.90
61339;DHT22;47213;52.362;4.606;2023-02-04T00:27:04;9.40;99.90
61339;DHT22;47213;52.362;4.606;2023-02-04T00:32:04;9.50;99.90
61339;DHT22;47213;52.362;4.606;2023-02-04T00:37:04;9.40;99.90
61339;DHT22;47213;52.362;4.606;2023-02-04T00:47:04;9.50;99.90
61339;DHT22;47213;52.362;4.606;2023-02-04T00:57:04;9.60;99.90
61339;DHT22;47213;52.362;4.606;2023-02-04T01:02:04;9.70;99.90
61339;DHT22;47213;52.362;4.606;2023-02-04T01:07:04;9.60;99.90
61339;DHT22;47213;52.362;4.606;2023-02-04T01:17:04;9.50;99.90
61339;DHT22;47213;52.362;4.606;2023-02-04T01:22:04;9.60;99.90
61339;DHT22;47213;52.362;4.606;2023-02-04T01:27:04;9.50;99.90
61339;DHT22;47213;52.362;4.606;2023-02-04T01:32:04;9.40;99.90
61339;DHT22;47213;52.362;4.606;2023-02-04T01:47:04;9.30;99.90
61339;DHT22;47213;52.362;4.606;2023-02-04T01:52:04;9.40;99.90
61339;DHT22;47213;52.362;4.606;2023-02-04T02:02:35;9.60;99.90
61339;DHT22;47213;52.362;4.606;2023-02-04T02:07:04;9.50;99.90
61339;DHT22;47213;52.362;4.606;2023-02-04T02:12:04;9.70;99.90
61339;DHT22;47213;52.362;4.606;2023-02-04T02:22:05;9.90;99.90
61339;DHT22;47213;52.362;4.606;2023-02-04T02:27:05;9.80;99.90
61339;DHT22;47213;52.362;4.606;2023-02-04T02:32:04;9.90;99.90
61339;DHT22;47213;52.362;4.606;2023-02-04T02:37:04;9.80;99.90
61339;DHT22;47213;52.362;4.606;2023-02-04T02:42:04;9.90;99.90
61339;DHT22;47213;52.362;4.606;2023-02-04T02:52:04;10.00;99.90
61339;DHT22;47213;52.362;4.606;2023-02-04T02:57:09;9.80;99.90
61339;DHT22;47213;52.362;4.606;2023-02-04T03:02:04;10.00;99.90
61339;DHT22;47213;52.362;4.606;2023-02-04T03:07:04;9.90;99.90
61339;DHT22;47213;52.362;4.606;2023-02-04T03:12:04;10.00;99.90
61339;DHT22;47213;52.362;4.606;2023-02-04T03:17:05;9.90;99.90
61339;DHT22;47213;52.362;4.606;2023-02-04T03:22:04;10.00;99.90
61339;DHT22;47213;52.362;4.606;2023-02-04T03:27:04;9.90;99.90
61339;DHT22;47213;52.362;4.606;2023-02-04T03:32:04;10.00;99.90
61339;DHT22;47213;52.362;4.606;2023-02-04T03:37:04;9.80;99.90
61339;DHT22;47213;52.362;4.606;2023-02-04T03:52:04;10.00;99.90
61339;DHT22;47213;52.362;4.606;2023-02-04T03:57:04;9.90;99.90
61339;DHT22;47213;52.362;4.606;2023-02-04T04:02:04;10.00;99.90
61339;DHT22;47213;52.362;4.606;2023-02-04T04:07:04;9.90;99.90
61339;DHT22;47213;52.362;4.606;2023-02-04T04:12:04;10.00;99.90
61339;DHT22;47213;52.362;4.606;2023-02-04T04:17:04;9.90;99.90
61339;DHT22;47213;52.362;4.606;2023-02-04T04:27:04;9.80;99.90
61339;DHT22;47213;52.362;4.606;2023-02-04T04:32:04;9.90;99.90
61339;DHT22;47213;52.362;4.606;2023-02-04T04:37:04;9.70;99.90
61339;DHT22;47213;52.362;4.606;2023-02-04T04:42:04;9.60;99.90
61339;DHT22;47213;52.362;4.606;2023-02-04T04:47:04;9.50;99.90
61339;DHT22;47213;52.362;4.606;2023-02-04T04:52:04;9.60;99.90
61339;DHT22;47213;52.362;4.606;2023-02-04T05:02:04;9.50;99.90
61339;DHT22;47213;52.362;4.606;2023-02-04T05:07:04;9.30;99.90
61339;DHT22;47213;52.362;4.606;2023-02-04T05:27:04;9.40;99.90
61339;DHT22;47213;52.362;4.606;2023-02-04T05:32:04;9.60;99.90
61339;DHT22;47213;52.362;4.606;2023-02-04T05:37:04;9.50;99.90
61339;DHT22;47213;52.362;4.606;2023-02-04T05:42:04;9.60;99.90
61339;DHT22;47213;52.362;4.606;2023-02-04T05:47:04;9.50;99.90
61339;DHT22;47213;52.362;4.606;2023-02-04T05:57:04;9.60;99.90
61339;DHT22;47213;52.362;4.606;2023-02-04T06:02:04;9.70;99.90
61339;DHT22;47213;52.362;4.606;2023-02-04T06:07:04;9.60;99.90
61339;DHT22;47213;52.362;4.606;2023-02-04T06:32:05;9.70;99.90
61339;DHT22;47213;52.362;4.606;2023-02-04T06:37:05;9.50;99.90
61339;DHT22;47213;52.362;4.606;2023-02-04T06:42:05;9.70;99.90
61339;DHT22;47213;52.362;4.606;2023-02-04T06:47:05;9.50;99.90
61339;DHT22;47213;52.362;4.606;2023-02-04T06:52:05;9.70;99.90
61339;DHT22;47213;52.362;4.606;2023-02-04T06:57:05;9.60;99.90
61339;DHT22;47213;52.362;4.606;2023-02-04T07:07:05;9.40;99.90
61339;DHT22;47213;52.362;4.606;2023-02-04T07:12:05;9.50;99.90
61339;DHT22;47213;52.362;4.606;2023-02-04T07:17:05;9.40;99.90
61339;DHT22;47213;52.362;4.606;2023-02-04T07:22:05;9.60;99.90
61339;DHT22;47213;52.362;4.606;2023-02-04T07:27:05;9.70;99.90
61339;DHT22;47213;52.362;4.606;2023-02-04T07:32:05;9.80;99.90
61339;DHT22;47213;52.362;4.606;2023-02-04T07:37:05;9.70;99.90
61339;DHT22;47213;52.362;4.606;2023-02-04T07:42:05;9.90;99.90
61339;DHT22;47213;52.362;4.606;2023-02-04T07:52:05;10.00;99.90
61339;DHT22;47213;52.362;4.606;2023-02-04T08:07:05;9.90;99.90
61339;DHT22;47213;52.362;4.606;2023-02-04T08:12:05;10.00;99.90
61339;DHT22;47213;52.362;4.606;2023-02-04T08:17:05;10.20;99.90
61339;DHT22;47213;52.362;4.606;2023-02-04T08:22:05;10.40;99.90
61339;DHT22;47213;52.362;4.606;2023-02-04T08:32:05;10.50;99.90
61339;DHT22;47213;52.362;4.606;2023-02-04T08:37:05;10.40;99.90
61339;DHT22;47213;52.362;4.606;2023-02-04T08:42:05;10.60;99.90
61339;DHT22;47213;52.362;4.606;2023-02-04T08:52:05;10.70;99.90
61339;DHT22;47213;52.362;4.606;2023-02-04T08:57:05;10.80;99.90
61339;DHT22;47213;52.362;4.606;2023-02-04T09:02:05;10.90;99.90
61339;DHT22;47213;52.362;4.606;2023-02-04T09:12:05;11.00;99.90
61339;DHT22;47213;52.362;4.606;2023-02-04T09:17:05;10.70;99.90
61339;DHT22;47213;52.362;4.606;2023-02-04T09:27:05;10.40;99.90
61339;DHT22;47213;52.362;4.606;2023-02-04T09:32:05;10.70;99.90
61339;DHT22;47213;52.362;4.606;2023-02-04T09:37:05;10.80;99.90
61339;DHT22;47213;52.362;4.606;2023-02-04T09:42:05;11.00;99.90
61339;DHT22;47213;52.362;4.606;2023-02-04T09:47:05;10.80;99.90
61339;DHT22;47213;52.362;4.606;2023-02-04T09:52:08;10.90;99.90
61339;DHT22;47213;52.362;4.606;2023-02-04T09:57:09;10.80;99.90
61339;DHT22;47213;52.362;4.606;2023-02-04T10:02:09;10.90;99.90
61339;DHT22;47213;52.362;4.606;2023-02-04T10:07:07;10.70;99.90
61339;DHT22;47213;52.362;4.606;2023-02-04T10:12:05;10.80;99.90
61339;DHT22;47213;52.362;4.606;2023-02-04T10:17:06;10.70;99.90
61339;DHT22;47213;52.362;4.606;2023-02-04T10:27:07;10.80;99.90
61339;DHT22;47213;52.362;4.606;2023-02-04T10:32:23;11.10;99.90
61339;DHT22;47213;52.362;4.606;2023-02-04T10:37:21;10.90;99.90
61339;DHT22;47213;52.362;4.606;2023-02-04T10:42:05;11.20;99.90
61339;DHT22;47213;52.362;4.606;2023-02-04T10:47:14;11.40;99.90
61339;DHT22;47213;52.362;4.606;2023-02-04T10:52:12;11.60;99.90
61339;DHT22;47213;52.362;4.606;2023-02-04T10:57:10;11.40;99.90
61339;DHT22;47213;52.362;4.606;2023-02-04T11:02:23;11.30;99.90
61339;DHT22;47213;52.362;4.606;2023-02-04T11:07:08;11.10;99.90
61339;DHT22;47213;52.362;4.606;2023-02-04T11:12:17;11.50;99.90
61339;DHT22;47213;52.362;4.606;2023-02-04T11:22:07;11.70;99.90
61339;DHT22;47213;52.362;4.606;2023-02-04T11:27:16;12.00;99.90
61339;DHT22;47213;52.362;4.606;2023-02-04T11:32:08;12.80;99.90
61339;DHT22;47213;52.362;4.606;2023-02-04T11:42:13;13.00;99.90
61339;DHT22;47213;52.362;4.606;2023-02-04T11:47:06;13.20;99.90
61339;DHT22;47213;52.362;4.606;2023-02-04T11:57:05;12.80;99.90
61339;DHT22;47213;52.362;4.606;2023-02-04T12:02:12;12.40;99.90
61339;DHT22;47213;52.362;4.606;2023-02-04T12:07:05;12.10;99.90
61339;DHT22;47213;52.362;4.606;2023-02-04T12:12:06;12.20;99.90
61339;DHT22;47213;52.362;4.606;2023-02-04T12:17:21;12.00;99.90
61339;DHT22;47213;52.362;4.606;2023-02-04T12:22:05;11.90;99.90
61339;DHT22;47213;52.362;4.606;2023-02-04T12:27:05;11.80;99.90
61339;DHT22;47213;52.362;4.606;2023-02-04T12:32:05;12.00;99.90
61339;DHT22;47213;52.362;4.606;2023-02-04T12:42:05;12.20;99.90
61339;DHT22;47213;52.362;4.606;2023-02-04T12:47:05;12.30;99.90
61339;DHT22;47213;52.362;4.606;2023-02-04T12:52:06;12.40;99.90
61339;DHT22;47213;52.362;4.606;2023-02-04T12:57:06;12.50;99.90
61339;DHT22;47213;52.362;4.606;2023-02-04T13:02:06;12.60;99.90
61339;DHT22;47213;52.362;4.606;2023-02-04T13:07:06;12.50;99.90
61339;DHT22;47213;52.362;4.606;2023-02-04T13:12:06;12.70;99.90
61339;DHT22;47213;52.362;4.606;2023-02-04T13:17:06;12.50;99.90
61339;DHT22;47213;52.362;4.606;2023-02-04T13:22:06;12.60;99.90
61339;DHT22;47213;52.362;4.606;2023-02-04T13:27:06;12.70;99.90
61339;DHT22;47213;52.362;4.606;2023-02-04T13:37:06;12.30;99.90
61339;DHT22;47213;52.362;4.606;2023-02-04T13:42:06;11.70;99.90
61339;DHT22;47213;52.362;4.606;2023-02-04T13:47:06;11.30;99.90
61339;DHT22;47213;52.362;4.606;2023-02-04T13:52:06;11.50;99.90
61339;DHT22;47213;52.362;4.606;2023-02-04T13:57:06;11.30;99.90
61339;DHT22;47213;52.362;4.606;2023-02-04T14:07:06;11.00;99.90
61339;DHT22;47213;52.362;4.606;2023-02-04T14:12:06;11.20;99.90
61339;DHT22;47213;52.362;4.606;2023-02-04T14:27:06;11.00;99.90
61339;DHT22;47213;52.362;4.606;2023-02-04T14:32:06;10.80;99.90
61339;DHT22;47213;52.362;4.606;2023-02-04T14:37:06;11.10;99.90
61339;DHT22;47213;52.362;4.606;2023-02-04T14:47:06;10.90;99.90
61339;DHT22;47213;52.362;4.606;2023-02-04T14:52:06;11.10;99.90
61339;DHT22;47213;52.362;4.606;2023-02-04T15:02:06;11.40;99.90
61339;DHT22;47213;52.362;4.606;2023-02-04T15:07:06;11.30;99.90
61339;DHT22;47213;52.362;4.606;2023-02-04T15:12:06;11.60;99.90
61339;DHT22;47213;52.362;4.606;2023-02-04T15:17:06;11.50;99.90
61339;DHT22;47213;52.362;4.606;2023-02-04T15:22:06;11.60;99.90
61339;DHT22;47213;52.362;4.606;2023-02-04T15:27:06;11.50;99.90
61339;DHT22;47213;52.362;4.606;2023-02-04T15:52:06;11.40;99.90
61339;DHT22;47213;52.362;4.606;2023-02-04T15:57:06;11.30;99.90
61339;DHT22;47213;52.362;4.606;2023-02-04T16:02:07;11.20;99.90
61339;DHT22;47213;52.362;4.606;2023-02-04T16:07:06;11.10;99.90
61339;DHT22;47213;52.362;4.606;2023-02-04T16:12:06;11.20;99.90
61339;DHT22;47213;52.362;4.606;2023-02-04T16:17:06;11.10;99.90
61339;DHT22;47213;52.362;4.606;2023-02-04T16:22:06;11.00;99.90
61339;DHT22;47213;52.362;4.606;2023-02-04T16:27:06;10.90;99.90
61339;DHT22;47213;52.362;4.606;2023-02-04T16:32:06;11.20;99.90
61339;DHT22;47213;52.362;4.606;2023-02-04T16:42:06;11.30;99.90
61339;DHT22;47213;52.362;4.606;2023-02-04T16:52:06;11.20;99.90
61339;DHT22;47213;52.362;4.606;2023-02-04T17:02:06;11.30;99.90
61339;DHT22;47213;52.362;4.606;2023-02-04T17:07:06;11.20;99.90
61339;DHT22;47213;52.362;4.606;2023-02-04T17:17:06;11.10;99.90
61339;DHT22;47213;52.362;4.606;2023-02-04T17:22:06;11.00;99.90
61339;DHT22;47213;52.362;4.606;2023-02-04T17:27:06;10.90;99.90
61339;DHT22;47213;52.362;4.606;2023-02-04T17:32:06;11.00;99.90
61339;DHT22;47213;52.362;4.606;2023-02-04T17:47:06;10.80;99.90
61339;DHT22;47213;52.362;4.606;2023-02-04T17:52:06;10.60;99.90
61339;DHT22;47213;52.362;4.606;2023-02-04T18:02:11;10.80;99.90
61339;DHT22;47213;52.362;4.606;2023-02-04T18:12:14;10.70;99.90
61339;DHT22;47213;52.362;4.606;2023-02-04T18:17:08;10.40;99.90
61339;DHT22;47213;52.362;4.606;2023-02-04T18:32:23;10.60;99.90
61339;DHT22;47213;52.362;4.606;2023-02-04T18:42:10;10.60;99.90
61339;DHT22;47213;52.362;4.606;2023-02-04T18:47:19;10.80;99.90
61339;DHT22;47213;52.362;4.606;2023-02-04T18:52:12;10.90;99.90
61339;DHT22;47213;52.362;4.606;2023-02-04T19:07:10;10.80;99.90
61339;DHT22;47213;52.362;4.606;2023-02-04T19:12:12;10.90;99.90
61339;DHT22;47213;52.362;4.606;2023-02-04T19:37:14;10.60;99.90
61339;DHT22;47213;52.362;4.606;2023-02-04T19:42:18;10.50;99.90
61339;DHT22;47213;52.362;4.606;2023-02-04T19:47:17;10.20;99.90
61339;DHT22;47213;52.362;4.606;2023-02-04T19:52:07;10.10;99.90
61339;DHT22;47213;52.362;4.606;2023-02-04T20:02:15;10.00;99.90
61339;DHT22;47213;52.362;4.606;2023-02-04T20:12:07;9.70;99.90
61339;DHT22;47213;52.362;4.606;2023-02-04T20:22:25;10.00;99.90
61339;DHT22;47213;52.362;4.606;2023-02-04T20:27:23;9.90;99.90
61339;DHT22;47213;52.362;4.606;2023-02-04T20:32:23;10.00;99.90
61339;DHT22;47213;52.362;4.606;2023-02-04T20:37:08;9.80;99.90
61339;DHT22;47213;52.362;4.606;2023-02-04T20:47:12;9.70;99.90
61339;DHT22;47213;52.362;4.606;2023-02-04T20:57:14;9.60;99.90
61339;DHT22;47213;52.362;4.606;2023-02-04T21:02:22;9.70;99.90
61339;DHT22;47213;52.362;4.606;2023-02-04T21:07:22;9.60;99.90
61339;DHT22;47213;52.362;4.606;2023-02-04T21:12:07;9.70;99.90
61339;DHT22;47213;52.362;4.606;2023-02-04T21:17:07;9.60;99.90
61339;DHT22;47213;52.362;4.606;2023-02-04T21:22:07;9.70;99.90
61339;DHT22;47213;52.362;4.606;2023-02-04T21:37:07;9.60;99.90
61339;DHT22;47213;52.362;4.606;2023-02-04T22:02:07;9.70;99.90
61339;DHT22;47213;52.362;4.606;2023-02-04T22:07:07;9.60;99.90
61339;DHT22;47213;52.362;4.606;2023-02-04T22:12:07;9.70;99.90
61339;DHT22;47213;52.362;4.606;2023-02-04T22:22:07;9.80;99.90
61339;DHT22;47213;52.362;4.606;2023-02-04T22:27:07;9.50;99.90
61339;DHT22;47213;52.362;4.606;2023-02-04T22:32:07;9.70;99.90
61339;DHT22;47213;52.362;4.606;2023-02-04T22:37:07;9.60;99.90
61339;DHT22;47213;52.362;4.606;2023-02-04T22:42:07;9.70;99.90
61339;DHT22;47213;52.362;4.606;2023-02-04T22:52:07;9.90;99.90
61339;DHT22;47213;52.362;4.606;2023-02-04T22:57:07;9.70;99.90
61339;DHT22;47213;52.362;4.606;2023-02-04T23:07:07;9.50;99.90
61339;DHT22;47213;52.362;4.606;2023-02-04T23:12:07;9.60;99.90
61339;DHT22;47213;52.362;4.606;2023-02-04T23:37:07;9.50;99.90
61339;DHT22;47213;52.362;4.606;2023-02-04T23:42:07;9.70;99.90
61339;DHT22;47213;52.362;4.606;2023-02-04T23:52:07;9.60;99.90
61339;DHT22;47213;52.362;4.606;2023-02-04T23:57:07;9.50;99.90
